createdAt,value
2019-03-18T00:01:42.473Z,1.30
2019-03-18T00:04:14.886Z,1.30
2019-03-18T00:06:46.423Z,1.50
2019-03-18T00:09:18.272Z,1.33
2019-03-18T00:11:49.790Z,1.50
2019-03-18T00:14:25.245Z,1.60
2019-03-18T00:16:57.899Z,1.77
2019-03-18T00:19:29.447Z,1.33
2019-03-18T00:22:01.266Z,1.10
2019-03-18T00:24:32.415Z,0.90
2019-03-18T00:27:03.379Z,1.20
2019-03-18T00:29:34.672Z,1.47
2019-03-18T00:32:06.210Z,1.17
2019-03-18T00:34:38.241Z,1.00
2019-03-18T00:37:09.491Z,1.50
2019-03-18T00:39:44.561Z,1.10
2019-03-18T00:42:16.065Z,1.10
2019-03-18T00:44:48.934Z,1.60
2019-03-18T00:47:20.398Z,1.67
2019-03-18T00:49:51.968Z,1.30
2019-03-18T00:52:23.067Z,1.40
2019-03-18T00:54:54.199Z,1.23
2019-03-18T00:57:25.343Z,1.27
2019-03-18T00:59:57.011Z,1.13
2019-03-18T01:02:28.113Z,1.37
2019-03-18T01:04:59.510Z,1.17
2019-03-18T01:07:30.622Z,1.20
2019-03-18T01:10:01.636Z,1.30
2019-03-18T01:12:35.677Z,1.40
2019-03-18T01:15:07.528Z,1.27
2019-03-18T01:17:39.331Z,1.23
2019-03-18T01:20:10.864Z,1.47
2019-03-18T01:22:42.092Z,1.67
2019-03-18T01:25:13.566Z,1.33
2019-03-18T01:27:45.467Z,1.60
2019-03-18T01:30:16.876Z,1.60
2019-03-18T01:32:48.241Z,1.63
2019-03-18T01:35:19.508Z,1.70
2019-03-18T01:37:52.942Z,1.60
2019-03-18T01:40:24.654Z,1.70
2019-03-18T01:42:55.935Z,1.43
2019-03-18T01:45:39.763Z,1.63
2019-03-18T01:48:00.825Z,1.40
2019-03-18T01:50:31.951Z,1.30
2019-03-18T01:53:03.234Z,1.40
2019-03-18T01:55:34.233Z,1.33
2019-03-18T01:58:05.627Z,1.60
2019-03-18T02:00:39.661Z,1.53
2019-03-18T02:03:11.414Z,1.10
2019-03-18T02:05:42.516Z,1.40
2019-03-18T02:08:14.161Z,1.40
2019-03-18T02:10:45.208Z,1.57
2019-03-18T02:13:16.309Z,1.17
2019-03-18T02:15:53.516Z,1.20
2019-03-18T02:18:23.102Z,1.73
2019-03-18T02:20:54.814Z,1.20
2019-03-18T02:23:26.449Z,1.67
2019-03-18T02:25:57.606Z,1.50
2019-03-18T02:28:28.747Z,1.50
2019-03-18T02:31:00.087Z,1.27
2019-03-18T02:33:31.266Z,1.60
2019-03-18T02:36:02.409Z,1.70
2019-03-18T02:38:33.539Z,1.63
2019-03-18T02:41:05.163Z,1.40
2019-03-18T02:43:36.227Z,1.57
2019-03-18T02:46:10.335Z,1.20
2019-03-18T02:48:40.574Z,1.13
2019-03-18T02:51:11.721Z,1.60
2019-03-18T02:53:43.302Z,1.30
2019-03-18T02:56:14.255Z,1.00
2019-03-18T02:58:45.341Z,1.23
2019-03-18T03:01:16.445Z,1.00
2019-03-18T03:03:47.930Z,1.10
2019-03-18T03:06:19.365Z,1.13
2019-03-18T03:08:50.617Z,0.90
2019-03-18T03:11:21.520Z,1.13
2019-03-18T03:13:52.920Z,1.27
2019-03-18T03:16:26.849Z,0.80
2019-03-18T03:18:56.697Z,1.20
2019-03-18T03:21:28.405Z,0.90
2019-03-18T03:24:02.116Z,1.37
2019-03-18T03:26:33.913Z,1.20
2019-03-18T03:29:05.626Z,0.93
2019-03-18T03:31:36.818Z,0.80
2019-03-18T03:34:13.337Z,1.17
2019-03-18T03:36:41.025Z,1.70
2019-03-18T03:39:12.070Z,1.17
2019-03-18T03:41:43.293Z,1.20
2019-03-18T03:44:14.398Z,1.20
2019-03-18T03:46:46.001Z,0.90
2019-03-18T03:49:17.062Z,1.20
2019-03-18T03:51:50.605Z,1.50
2019-03-18T03:54:21.755Z,1.40
2019-03-18T03:56:53.309Z,1.60
2019-03-18T03:59:24.682Z,1.60
2019-03-18T04:01:56.452Z,1.80
2019-03-18T04:04:28.016Z,1.60
2019-03-18T04:06:59.054Z,1.80
2019-03-18T04:09:30.050Z,1.70
2019-03-18T04:12:01.458Z,1.73
2019-03-18T04:14:32.615Z,1.43
2019-03-18T04:17:04.133Z,1.90
2019-03-18T04:19:35.558Z,1.87
2019-03-18T04:22:06.618Z,1.97
2019-03-18T04:24:37.947Z,1.93
2019-03-18T04:27:09.266Z,2.03
2019-03-18T04:29:42.060Z,1.83
2019-03-18T04:32:13.637Z,1.93
2019-03-18T04:34:44.868Z,1.60
2019-03-18T04:37:16.084Z,1.53
2019-03-18T04:39:48.080Z,1.90
2019-03-18T04:42:19.209Z,2.03
2019-03-18T04:44:50.451Z,2.20
2019-03-18T04:47:21.801Z,1.77
2019-03-18T04:49:56.008Z,2.07
2019-03-18T04:52:27.091Z,2.30
2019-03-18T04:54:58.431Z,2.63
2019-03-18T04:57:29.514Z,2.20
2019-03-18T05:00:01.083Z,2.60
2019-03-18T05:02:32.494Z,2.13
2019-03-18T05:05:03.644Z,2.43
2019-03-18T05:07:34.567Z,2.27
2019-03-18T05:10:06.677Z,2.37
2019-03-18T05:12:37.915Z,2.47
2019-03-18T05:15:09.306Z,2.53
2019-03-18T05:17:40.472Z,2.33
2019-03-18T05:20:12.210Z,2.10
2019-03-18T05:22:43.257Z,2.67
2019-03-18T05:25:14.715Z,2.53
2019-03-18T05:27:45.859Z,2.93
2019-03-18T05:30:18.302Z,2.67
2019-03-18T05:32:49.301Z,2.57
2019-03-18T05:35:20.344Z,3.20
2019-03-18T05:37:51.475Z,2.47
2019-03-18T05:40:23.004Z,3.00
2019-03-18T05:42:54.039Z,3.27
2019-03-18T05:45:25.077Z,2.60
2019-03-18T05:47:56.359Z,3.07
2019-03-18T05:50:35.636Z,2.50
2019-03-18T05:53:06.819Z,3.10
2019-03-18T05:55:38.672Z,2.80
2019-03-18T05:58:10.056Z,2.90
2019-03-18T06:00:40.953Z,3.37
2019-03-18T06:03:12.257Z,3.70
2019-03-18T06:05:43.669Z,3.20
2019-03-18T06:08:14.813Z,3.63
2019-03-18T06:10:46.104Z,3.33
2019-03-18T06:13:17.100Z,2.70
2019-03-18T06:15:48.524Z,3.83
2019-03-18T06:18:20.878Z,2.90
2019-03-18T06:20:52.146Z,3.20
2019-03-18T06:23:23.294Z,3.13
2019-03-18T06:25:58.111Z,3.00
2019-03-18T06:28:30.234Z,3.33
2019-03-18T06:31:05.177Z,3.13
2019-03-18T06:33:38.867Z,2.80
2019-03-18T06:36:36.060Z,3.10
2019-03-18T06:39:34.367Z,2.70
2019-03-18T06:42:07.205Z,3.30
2019-03-18T06:44:39.008Z,2.87
2019-03-18T06:47:10.284Z,2.90
2019-03-18T06:49:41.618Z,2.90
2019-03-18T06:52:16.086Z,2.40
2019-03-18T06:54:54.755Z,3.13
2019-03-18T06:57:33.295Z,2.93
2019-03-18T07:00:06.952Z,3.50
2019-03-18T07:02:38.023Z,2.47
2019-03-18T07:05:09.552Z,3.10
2019-03-18T07:07:41.049Z,3.73
2019-03-18T07:10:12.435Z,3.47
2019-03-18T07:12:44.368Z,3.10
2019-03-18T07:15:16.162Z,3.83
2019-03-18T07:17:49.073Z,3.40
2019-03-18T07:20:20.671Z,3.20
2019-03-18T07:22:51.738Z,3.13
2019-03-18T07:25:22.936Z,2.70
2019-03-18T07:27:54.422Z,3.80
2019-03-18T07:30:28.303Z,2.83
2019-03-18T07:32:59.484Z,3.27
2019-03-18T07:35:30.763Z,3.17
2019-03-18T07:38:02.564Z,3.07
2019-03-18T07:40:33.791Z,3.07
2019-03-18T07:43:05.038Z,2.83
2019-03-18T07:45:36.893Z,2.70
2019-03-18T07:48:08.063Z,2.40
2019-03-18T07:50:39.237Z,3.10
2019-03-18T07:53:11.925Z,2.40
2019-03-18T07:55:50.152Z,2.30
2019-03-18T07:58:22.291Z,2.83
2019-03-18T08:00:54.077Z,2.07
2019-03-18T08:03:28.751Z,2.10
2019-03-18T08:06:03.174Z,2.40
2019-03-18T08:08:35.094Z,2.77
2019-03-18T08:11:09.567Z,2.13
2019-03-18T08:13:41.080Z,2.20
2019-03-18T08:16:13.491Z,2.10
2019-03-18T08:18:44.529Z,2.13
2019-03-18T08:21:15.934Z,1.67
2019-03-18T08:23:48.057Z,1.80
2019-03-18T08:26:19.373Z,2.10
2019-03-18T08:28:50.672Z,2.53
2019-03-18T08:31:26.554Z,2.13
2019-03-18T08:33:58.489Z,2.47
2019-03-18T08:36:32.728Z,1.63
2019-03-18T08:39:07.497Z,1.93
2019-03-18T08:41:40.123Z,1.67
2019-03-18T08:44:15.739Z,2.23
2019-03-18T08:46:48.414Z,1.80
2019-03-18T08:49:20.041Z,1.80
2019-03-18T08:51:52.315Z,2.03
2019-03-18T08:54:23.860Z,1.73
2019-03-18T08:56:55.294Z,2.13
2019-03-18T08:59:26.938Z,2.47
2019-03-18T09:01:58.385Z,2.30
2019-03-18T09:04:33.294Z,2.13
2019-03-18T09:07:06.575Z,1.93
2019-03-18T09:09:40.326Z,2.13
2019-03-18T09:12:15.258Z,2.03
2019-03-18T09:14:50.398Z,1.70
2019-03-18T09:17:30.110Z,2.00
2019-03-18T09:20:01.909Z,1.70
2019-03-18T09:22:35.681Z,1.70
2019-03-18T09:25:18.984Z,2.47
2019-03-18T09:27:50.913Z,2.00
2019-03-18T09:30:23.116Z,1.43
2019-03-18T09:32:55.080Z,1.70
2019-03-18T09:35:26.360Z,1.93
2019-03-18T09:38:00.386Z,2.23
2019-03-18T09:40:31.577Z,1.80
2019-03-18T09:43:03.154Z,1.97
2019-03-18T09:45:34.851Z,2.13
2019-03-18T09:48:06.665Z,1.73
2019-03-18T09:50:37.830Z,1.97
2019-03-18T09:53:09.050Z,1.50
2019-03-18T09:55:40.225Z,1.70
2019-03-18T09:58:12.630Z,1.93
2019-03-18T10:00:45.077Z,1.47
2019-03-18T10:03:17.522Z,2.67
2019-03-18T10:05:48.929Z,1.90
2019-03-18T10:08:19.884Z,1.87
2019-03-18T10:10:51.667Z,1.90
2019-03-18T10:13:22.850Z,1.77
2019-03-18T10:15:54.054Z,2.70
2019-03-18T10:18:25.907Z,1.77
2019-03-18T10:20:57.236Z,1.90
2019-03-18T10:23:31.079Z,1.67
2019-03-18T10:26:02.428Z,2.00
2019-03-18T10:28:34.336Z,1.83
2019-03-18T10:31:05.323Z,2.07
2019-03-18T10:33:36.390Z,2.63
2019-03-18T10:36:07.668Z,2.50
2019-03-18T10:38:39.239Z,2.13
2019-03-18T10:41:13.136Z,1.80
2019-03-18T10:43:45.997Z,2.20
2019-03-18T10:46:17.079Z,2.13
2019-03-18T10:48:48.944Z,2.10
2019-03-18T10:51:20.071Z,2.27
2019-03-18T10:53:54.241Z,2.70
2019-03-18T10:56:26.909Z,1.83
2019-03-18T10:59:02.211Z,1.80
2019-03-18T11:01:36.632Z,2.20
2019-03-18T11:04:08.183Z,1.77
2019-03-18T11:06:39.832Z,1.80
2019-03-18T11:09:12.496Z,2.10
2019-03-18T11:11:44.100Z,2.00
2019-03-18T11:14:17.432Z,2.07
2019-03-18T11:16:48.624Z,2.20
2019-03-18T11:19:19.838Z,2.37
2019-03-18T11:21:51.213Z,2.10
2019-03-18T11:24:22.477Z,2.00
2019-03-18T11:26:55.325Z,2.27
2019-03-18T11:29:32.784Z,2.03
2019-03-18T11:32:04.343Z,2.00
2019-03-18T11:34:40.021Z,1.80
2019-03-18T11:37:24.046Z,1.97
2019-03-18T11:39:55.620Z,2.10
2019-03-18T11:42:29.097Z,2.10
2019-03-18T11:45:00.469Z,2.30
2019-03-18T11:47:38.514Z,2.17
2019-03-18T11:50:12.563Z,2.17
2019-03-18T11:52:47.234Z,1.73
2019-03-18T11:55:18.931Z,2.13
2019-03-18T11:57:51.333Z,1.80
2019-03-18T12:00:22.581Z,1.70
2019-03-18T12:02:53.977Z,1.97
2019-03-18T12:05:27.100Z,2.10
2019-03-18T12:07:58.596Z,1.50
2019-03-18T12:10:31.429Z,1.70
2019-03-18T12:13:04.590Z,1.40
2019-03-18T12:15:36.628Z,2.00
2019-03-18T12:18:20.934Z,2.17
2019-03-18T12:20:54.567Z,2.20
2019-03-18T12:23:30.700Z,1.67
2019-03-18T12:26:02.253Z,1.30
2019-03-18T12:28:33.894Z,1.83
2019-03-18T12:31:05.187Z,1.43
2019-03-18T12:33:47.340Z,1.30
2019-03-18T12:36:42.501Z,1.67
2019-03-18T12:39:17.301Z,1.30
2019-03-18T12:41:49.479Z,1.30
2019-03-18T12:45:35.926Z,1.60
2019-03-18T12:48:14.819Z,1.20
2019-03-18T12:50:55.822Z,1.80
2019-03-18T12:53:45.140Z,1.17
2019-03-18T12:56:19.902Z,1.63
2019-03-18T12:58:53.286Z,1.80
2019-03-18T13:01:26.344Z,1.50
2019-03-18T13:03:57.774Z,1.80
2019-03-18T13:06:35.153Z,1.50
2019-03-18T13:09:09.310Z,1.30
2019-03-18T13:11:41.078Z,1.83
2019-03-18T13:14:12.145Z,2.77
2019-03-18T13:16:42.975Z,1.77
2019-03-18T13:19:15.337Z,1.60
2019-03-18T13:21:55.649Z,1.10
2019-03-18T13:24:26.869Z,1.53
2019-03-18T13:27:00.339Z,1.17
2019-03-18T13:29:33.709Z,1.30
2019-03-18T13:32:06.236Z,1.10
2019-03-18T13:34:37.485Z,1.10
2019-03-18T13:37:08.347Z,1.33
2019-03-18T13:39:39.546Z,1.40
2019-03-18T13:42:10.990Z,1.60
2019-03-18T13:44:42.051Z,1.40
2019-03-18T13:47:40.709Z,1.10
2019-03-18T13:50:13.599Z,1.23
2019-03-18T13:52:44.679Z,1.23
2019-03-18T13:55:15.642Z,1.00
2019-03-18T13:57:47.059Z,0.90
2019-03-18T14:00:19.212Z,1.10
2019-03-18T14:02:51.852Z,1.43
2019-03-18T14:05:23.179Z,1.10
2019-03-18T14:08:00.183Z,1.40
2019-03-18T14:10:27.505Z,1.40
2019-03-18T14:12:59.520Z,1.30
2019-03-18T14:15:30.687Z,1.20
2019-03-18T14:18:02.107Z,1.43
2019-03-18T14:20:43.996Z,1.00
2019-03-18T14:23:15.173Z,2.20
2019-03-18T14:25:47.932Z,1.40
2019-03-18T14:28:25.136Z,1.60
2019-03-18T14:30:58.953Z,1.13
2019-03-18T14:33:30.021Z,1.27
2019-03-18T14:36:05.521Z,1.60
2019-03-18T14:38:38.311Z,1.70
2019-03-18T14:41:10.027Z,1.67
2019-03-18T14:43:46.452Z,1.30
2019-03-18T14:46:15.983Z,0.97
2019-03-18T14:48:52.009Z,1.10
2019-03-18T14:51:23.160Z,1.43
2019-03-18T14:53:54.948Z,1.30
2019-03-18T14:56:26.677Z,1.67
2019-03-18T14:59:03.378Z,1.03
2019-03-18T15:01:35.577Z,1.43
2019-03-18T15:04:07.144Z,1.80
2019-03-18T15:07:09.080Z,1.80
2019-03-18T15:10:09.819Z,2.60
2019-03-18T15:12:41.928Z,2.43
2019-03-18T15:15:16.530Z,2.17
2019-03-18T15:17:47.971Z,2.37
2019-03-18T15:20:20.075Z,1.80
2019-03-18T15:22:50.809Z,2.60
2019-03-18T15:25:28.373Z,1.83
2019-03-18T15:28:03.320Z,1.73
2019-03-18T15:30:34.972Z,2.10
2019-03-18T15:33:06.961Z,2.10
2019-03-18T15:35:37.858Z,2.50
2019-03-18T15:38:09.131Z,2.40
2019-03-18T15:40:44.091Z,2.43
2019-03-18T15:43:16.222Z,2.83
2019-03-18T15:45:49.991Z,2.30
2019-03-18T15:48:22.526Z,2.10
2019-03-18T15:51:00.027Z,1.40
2019-03-18T15:53:33.020Z,1.70
2019-03-18T15:56:27.292Z,1.70
2019-03-18T15:59:25.295Z,1.50
2019-03-18T16:02:04.694Z,1.50
2019-03-18T16:04:36.093Z,1.47
2019-03-18T16:07:11.014Z,1.63
2019-03-18T16:09:44.753Z,2.20
2019-03-18T16:12:19.394Z,1.73
2019-03-18T16:14:52.192Z,2.33
2019-03-18T16:17:24.884Z,1.60
2019-03-18T16:19:58.174Z,2.60
2019-03-18T16:22:32.092Z,2.33
2019-03-18T16:25:03.100Z,1.87
2019-03-18T16:27:34.317Z,2.13
2019-03-18T16:30:06.348Z,1.83
2019-03-18T16:32:38.509Z,1.70
2019-03-18T16:35:11.097Z,2.23
2019-03-18T16:37:42.149Z,2.20
2019-03-18T16:40:15.273Z,2.03
2019-03-18T16:42:46.683Z,1.40
2019-03-18T16:45:24.752Z,1.23
2019-03-18T16:47:54.495Z,1.27
2019-03-18T16:50:25.822Z,1.03
2019-03-18T16:52:57.486Z,1.00
2019-03-18T16:55:29.745Z,0.70
2019-03-18T16:58:06.290Z,1.00
2019-03-18T17:00:37.394Z,1.00
2019-03-18T17:03:08.737Z,0.93
2019-03-18T17:05:40.394Z,1.20
2019-03-18T17:08:13.906Z,1.00
2019-03-18T17:10:46.111Z,0.97
2019-03-18T17:13:18.127Z,1.17
2019-03-18T17:15:52.802Z,1.17
2019-03-18T17:18:24.103Z,1.33
2019-03-18T17:20:58.108Z,1.10
2019-03-18T17:23:29.424Z,1.10
2019-03-18T17:26:00.773Z,1.20
2019-03-18T17:28:33.824Z,1.37
2019-03-18T17:31:16.864Z,2.10
2019-03-18T17:33:49.760Z,2.20
2019-03-18T17:36:22.042Z,1.93
2019-03-18T17:39:00.148Z,2.20
2019-03-18T17:41:32.924Z,2.67
2019-03-18T17:44:07.185Z,1.93
2019-03-18T17:46:49.297Z,1.80
2019-03-18T17:49:20.812Z,1.80
2019-03-18T17:51:56.116Z,2.33
2019-03-18T17:54:27.463Z,2.93
2019-03-18T17:57:07.641Z,2.47
2019-03-18T17:59:43.658Z,3.13
2019-03-18T18:02:15.155Z,2.40
2019-03-18T18:04:46.616Z,2.10
2019-03-18T18:07:20.315Z,2.80
2019-03-18T18:09:54.672Z,2.40
2019-03-18T18:12:32.050Z,2.80
2019-03-18T18:15:04.456Z,2.20
2019-03-18T18:17:35.365Z,2.70
2019-03-18T18:20:10.401Z,2.73
2019-03-18T18:22:42.113Z,1.93
2019-03-18T18:25:13.862Z,2.47
2019-03-18T18:27:51.659Z,2.60
2019-03-18T18:30:29.212Z,2.20
2019-03-18T18:33:07.994Z,2.30
2019-03-18T18:35:39.809Z,2.83
2019-03-18T18:38:11.762Z,2.60
2019-03-18T18:40:43.222Z,2.30
2019-03-18T18:43:20.092Z,2.73
2019-03-18T18:45:51.444Z,2.77
2019-03-18T18:48:24.619Z,2.87
2019-03-18T18:51:19.198Z,2.63
2019-03-18T18:53:53.783Z,3.30
2019-03-18T18:56:30.835Z,3.27
2019-03-18T18:59:04.172Z,3.53
2019-03-18T19:01:45.986Z,2.90
2019-03-18T19:04:20.690Z,3.37
2019-03-18T19:06:53.568Z,4.07
2019-03-18T19:09:33.878Z,4.40
2019-03-18T19:12:05.428Z,4.10
2019-03-18T19:14:39.639Z,3.27
2019-03-18T19:17:12.604Z,4.00
2019-03-18T19:19:51.401Z,4.23
2019-03-18T19:22:31.108Z,4.33
2019-03-18T19:25:03.158Z,4.00
2019-03-18T19:27:38.742Z,3.70
2019-03-18T19:30:20.468Z,3.30
2019-03-18T19:32:52.333Z,4.03
2019-03-18T19:35:31.622Z,4.17
2019-03-18T19:38:03.294Z,3.43
2019-03-18T19:40:35.129Z,4.70
2019-03-18T19:43:07.786Z,3.83
2019-03-18T19:45:44.445Z,4.10
2019-03-18T19:48:18.155Z,4.03
2019-03-18T19:50:52.342Z,3.80
2019-03-18T19:53:31.828Z,3.73
2019-03-18T19:56:13.020Z,3.80
2019-03-18T19:58:47.515Z,3.80
2019-03-18T20:01:25.016Z,3.13
2019-03-18T20:04:00.688Z,3.30
2019-03-18T20:06:34.916Z,5.30
2019-03-18T20:09:14.837Z,3.73
2019-03-18T20:11:49.956Z,4.17
2019-03-18T20:14:25.029Z,4.27
2019-03-18T20:16:56.666Z,3.77
2019-03-18T20:19:28.054Z,4.03
2019-03-18T20:22:02.637Z,4.00
2019-03-18T20:24:39.780Z,3.83
2019-03-18T20:27:15.644Z,4.13
2019-03-18T20:29:47.097Z,4.27
2019-03-18T20:32:20.498Z,4.13
2019-03-18T20:34:54.234Z,3.80
2019-03-18T20:37:29.028Z,4.73
2019-03-18T20:40:00.974Z,3.70
2019-03-18T20:42:35.632Z,4.03
2019-03-18T20:45:15.683Z,4.17
2019-03-18T20:47:48.158Z,3.57
2019-03-18T20:50:22.100Z,3.93
2019-03-18T20:53:07.598Z,3.57
2019-03-18T20:55:40.094Z,4.10
2019-03-18T20:58:11.614Z,4.07
2019-03-18T21:00:42.917Z,4.07
2019-03-18T21:03:14.417Z,4.00
2019-03-18T21:06:06.913Z,3.40
2019-03-18T21:08:40.635Z,3.47
2019-03-18T21:11:36.973Z,3.30
2019-03-18T21:14:11.129Z,3.50
2019-03-18T21:16:44.474Z,3.53
2019-03-18T21:19:17.645Z,4.03
2019-03-18T21:22:05.098Z,4.20
2019-03-18T21:24:39.440Z,4.23
2019-03-18T21:27:10.758Z,3.87
2019-03-18T21:29:41.910Z,3.80
2019-03-18T21:32:19.274Z,3.63
2019-03-18T21:34:57.228Z,4.37
2019-03-18T21:37:28.903Z,4.03
2019-03-18T21:40:03.403Z,3.70
2019-03-18T21:42:40.335Z,4.60
2019-03-18T21:45:15.634Z,3.57
2019-03-18T21:47:49.606Z,4.20
2019-03-18T21:50:25.309Z,4.47
2019-03-18T21:52:57.405Z,3.90
2019-03-18T21:55:36.007Z,4.87
2019-03-18T21:58:08.813Z,4.33
2019-03-18T22:00:40.110Z,4.87
2019-03-18T22:03:14.766Z,3.93
2019-03-18T22:05:46.360Z,4.23
2019-03-18T22:08:22.939Z,4.83
2019-03-18T22:10:54.535Z,4.10
2019-03-18T22:13:30.167Z,4.80
2019-03-18T22:16:01.648Z,4.50
2019-03-18T22:18:32.835Z,5.00
2019-03-18T22:21:04.480Z,5.43
2019-03-18T22:23:36.204Z,7.57
2019-03-18T22:26:07.751Z,5.57
2019-03-18T22:28:39.574Z,7.13
2019-03-18T22:31:12.208Z,6.20
2019-03-18T22:33:44.139Z,6.77
2019-03-18T22:36:19.217Z,7.10
2019-03-18T22:38:50.939Z,6.97
2019-03-18T22:41:24.386Z,7.07
2019-03-18T22:43:57.503Z,6.60
2019-03-18T22:46:30.367Z,6.20
2019-03-18T22:49:01.766Z,6.57
2019-03-18T22:51:33.029Z,6.57
2019-03-18T22:54:04.168Z,6.67
2019-03-18T22:56:35.329Z,5.67
2019-03-18T22:59:07.198Z,5.67
2019-03-18T23:01:43.352Z,5.37
2019-03-18T23:04:17.663Z,6.17
2019-03-18T23:06:59.339Z,6.60
2019-03-18T23:09:31.670Z,6.93
2019-03-18T23:12:03.154Z,5.73
2019-03-18T23:14:34.660Z,5.93
2019-03-18T23:17:06.325Z,5.87
2019-03-18T23:19:38.670Z,5.27
2019-03-18T23:22:09.545Z,5.60
2019-03-18T23:24:43.433Z,6.03
2019-03-18T23:27:14.253Z,6.90
2019-03-18T23:29:45.596Z,7.43
2019-03-18T23:32:17.521Z,6.40
2019-03-18T23:34:48.793Z,5.83
2019-03-18T23:37:19.906Z,5.20
2019-03-18T23:39:51.241Z,6.00
2019-03-18T23:42:28.439Z,5.23
2019-03-18T23:45:00.021Z,6.07
2019-03-18T23:47:32.827Z,5.57
2019-03-18T23:50:08.019Z,5.57
2019-03-18T23:52:40.388Z,5.70
2019-03-18T23:55:19.493Z,5.23
2019-03-18T23:57:46.510Z,5.90
